Skip Navigation LinksHome page > Weather > Current weather Skip Navigation Links

Current Weather

Palm Beach Intl, West Palm Beach, Fla.

For information only: do not use for flight planning or navigation.
Latest weather
Observation time Friday, April 3, 2020 12:53 PM EDT
Local time Friday, April 3, 2020 1:31 PM EDT
Flight conditions Visual Meteorological Conditions
Winds
Wind direction variable
Wind speed 5 mph
Visibility 10 mi.
Sky condition
Ceiling unlimited
Cloud layer scattered clouds 4,600 ft.
Cloud layer scattered clouds 17,000 ft.
Temperature 81°F
Dewpoint 57°F
Altimeter 30.00 in.Hg
Derived measurements
Relative humidity 44%
Heat index 81°F
Density altitude 1557 ft.
Sea-level pressure 29.99 in.Hg
Remarks
Automated weather observing station with precipitation discriminator.
METAR KPBI 031653Z VRB04KT 10SM SCT046 SCT170 27/14 A3000 RMK AO2 SLP157 T02720139

Settings

Location code

InnerDrive.Weather 4.0.6770.0 Release CLR 4.0.30319.42000
Copyright ©2018 Inner Drive Technology. All rights reserved. Portions Copyright ©1986-2018 David Braverman.

Find weather

Site navigation


Skip Navigation Links

Place info

Page info

PayPal - The safer, easier way to pay online!

Return home.

Copyright ©2020 Inner Drive Technology. Purveyors of fine, hand-crafted computer software. Page printed 2020-04-03T17:31:19 UTC.